createdAt,value
2016-09-10T20:54:41.064Z,72.09
2016-09-10T20:55:42.341Z,72.28
2016-09-10T20:56:43.017Z,72.77
2016-09-10T20:57:43.734Z,72.48
2016-09-10T20:58:44.414Z,72.73
2016-09-10T20:59:45.218Z,72.96
2016-09-10T21:00:46.175Z,72.96
2016-09-10T21:01:46.928Z,73.06
2016-09-10T21:02:47.784Z,73.25
2016-09-10T21:03:48.439Z,72.96
2016-09-10T21:04:49.120Z,73.06
2016-09-10T21:05:49.834Z,72.92
2016-09-10T21:06:50.529Z,73.44
2016-09-10T21:07:51.169Z,73.11
2016-09-10T21:08:51.804Z,73.5
2016-09-10T21:09:52.486Z,73.31
2016-09-10T21:10:53.128Z,73.11
2016-09-10T21:11:53.772Z,73.6
2016-09-10T21:12:54.419Z,73.6
2016-09-10T21:13:55.059Z,73.6
2016-09-10T21:14:55.704Z,73.79
2016-09-10T21:15:56.339Z,73.21
2016-09-10T21:16:56.973Z,73.69
2016-09-10T21:17:57.679Z,73.79
2016-09-10T21:18:58.455Z,73.99
2016-09-10T21:19:59.100Z,73.79
2016-09-10T21:20:59.766Z,73.69
2016-09-10T21:22:00.429Z,73.99
2016-09-10T21:23:01.103Z,73.99
2016-09-10T21:24:01.764Z,73.99
2016-09-10T21:25:02.409Z,73.99
2016-09-10T21:26:03.059Z,74.57
2016-09-10T21:27:03.689Z,74.66
2016-09-10T21:28:04.329Z,74.57
2016-09-10T21:29:04.964Z,75.05
2016-09-10T21:30:05.626Z,75.01
2016-09-10T21:31:06.300Z,74.95
2016-09-10T21:32:06.961Z,75.2
2016-09-10T21:33:07.662Z,74.85
2016-09-10T21:34:08.308Z,74.57
2016-09-10T21:35:08.977Z,74.85
2016-09-10T21:36:09.630Z,75.82
2016-09-10T21:37:10.276Z,75.24
2016-09-10T21:38:10.970Z,75.59
2016-09-10T21:39:11.620Z,75.4
2016-09-10T21:40:12.290Z,75.68
2016-09-10T21:41:12.936Z,75.78
2016-09-10T21:42:13.584Z,76.17
2016-09-10T21:43:14.292Z,75.88
2016-09-10T21:44:14.953Z,75.88
2016-09-10T21:45:15.605Z,75.78
2016-09-10T21:46:16.250Z,75.97
2016-09-10T21:47:16.901Z,76.65
2016-09-10T21:48:17.616Z,76.55
2016-09-10T21:49:18.280Z,76.65
2016-09-10T21:50:18.930Z,76.65
2016-09-10T21:51:19.590Z,76.75
2016-09-10T21:52:20.236Z,77.03
2016-09-10T21:53:20.891Z,76.93
2016-09-10T21:54:21.562Z,76.84
2016-09-10T21:55:22.219Z,77.13
2016-09-10T21:56:22.861Z,77.13
2016-09-10T21:57:23.528Z,77.03
2016-09-10T21:58:24.164Z,77.23
2016-09-10T21:59:24.835Z,77.23
2016-09-10T22:00:25.495Z,76.84
2016-09-10T22:01:26.124Z,76.84
2016-09-10T22:02:26.763Z,77.13
2016-09-10T22:03:27.409Z,77.23
2016-09-10T22:04:28.086Z,77.23
2016-09-10T22:05:28.715Z,77.13
2016-09-10T22:06:29.380Z,77.03
2016-09-10T22:07:30.056Z,77.38
2016-09-10T22:08:30.818Z,77.23
2016-09-10T22:09:31.477Z,77.38
2016-09-10T22:10:32.127Z,77.48
2016-09-10T22:11:32.785Z,77.51
2016-09-10T22:12:33.429Z,78
2016-09-10T22:13:34.049Z,78
2016-09-10T22:14:34.693Z,78.06
2016-09-10T22:15:35.338Z,78.06
2016-09-10T22:16:36.016Z,78.15
2016-09-10T22:17:36.683Z,78.15
2016-09-10T22:18:37.331Z,78.25
2016-09-10T22:19:37.979Z,77.86
2016-09-10T22:20:38.631Z,77.96
2016-09-10T22:21:39.296Z,78.09
2016-09-10T22:22:39.935Z,77.86
2016-09-10T22:23:40.564Z,78.44
2016-09-10T22:24:41.190Z,77.38
2016-09-10T22:25:41.821Z,78.15
2016-09-10T22:26:42.477Z,77.58
2016-09-10T22:27:43.122Z,77.58
2016-09-10T22:28:43.829Z,77.48
2016-09-10T22:29:44.476Z,78.19
2016-09-10T22:30:45.117Z,77.96
2016-09-10T22:31:45.770Z,78.15
2016-09-10T22:32:46.404Z,78.44
2016-09-10T22:33:47.062Z,77.86
2016-09-10T22:34:47.740Z,78.44
2016-09-10T22:35:48.376Z,77.76
2016-09-10T22:36:49.020Z,78.44
2016-09-10T22:37:49.672Z,77.96
2016-09-10T22:38:50.346Z,77.86
2016-09-10T22:39:50.988Z,78.15
2016-09-10T22:40:51.647Z,78.63
2016-09-10T22:41:52.359Z,78.15
2016-09-10T22:42:53.011Z,78.63
2016-09-10T22:43:53.647Z,78.63
2016-09-10T22:44:54.310Z,78.54
2016-09-10T22:45:54.949Z,78.34
2016-09-10T22:46:55.596Z,78.63
2016-09-10T22:47:56.241Z,78.34
2016-09-10T22:48:56.896Z,78.34
2016-09-10T22:49:58.700Z,78.44
2016-09-10T22:50:59.235Z,78.73
2016-09-10T22:51:59.929Z,78.92
2016-09-10T22:53:00.701Z,78.92
2016-09-10T22:54:01.366Z,78.83
2016-09-10T22:55:01.936Z,78.63
2016-09-10T22:56:02.637Z,78.73
2016-09-10T22:57:03.553Z,79.27
2016-09-10T22:58:04.740Z,78.88
2016-09-10T22:59:05.514Z,79.21
2016-09-10T23:00:06.300Z,78.88
2016-09-10T23:01:06.946Z,79.08
2016-09-10T23:02:07.624Z,79.31
2016-09-10T23:03:08.258Z,79.79
2016-09-10T23:04:08.914Z,79.6
2016-09-10T23:05:09.649Z,79.36
2016-09-10T23:06:10.363Z,79.27
2016-09-10T23:07:11.044Z,79.56
2016-09-10T23:08:11.741Z,79.69
2016-09-10T23:09:12.403Z,79.79
2016-09-10T23:10:13.058Z,79.56
2016-09-10T23:11:13.736Z,79.66
2016-09-10T23:12:14.463Z,79.66
2016-09-10T23:13:15.111Z,79.75
2016-09-10T23:14:15.817Z,79.66
2016-09-10T23:15:16.489Z,79.46
2016-09-10T23:16:17.161Z,79.46
2016-09-10T23:17:17.804Z,79.27
2016-09-10T23:18:19.709Z,79.56
2016-09-10T23:19:25.076Z,79.56
2016-09-10T23:20:25.760Z,80.04
2016-09-10T23:21:26.428Z,79.85
2016-09-10T23:22:27.125Z,79.56
2016-09-10T23:23:27.761Z,79.94
2016-09-10T23:24:28.415Z,79.94
2016-09-10T23:25:29.093Z,79.94
2016-09-10T23:26:29.800Z,79.94
2016-09-10T23:27:30.464Z,80.04
2016-09-10T23:28:31.258Z,80.14
2016-09-10T23:29:31.913Z,80.04
2016-09-10T23:30:32.584Z,80.14
2016-09-10T23:31:33.235Z,80.23
2016-09-10T23:32:33.888Z,80.14
2016-09-10T23:33:34.528Z,80.04
2016-09-10T23:34:35.192Z,80.04
2016-09-10T23:35:35.914Z,80.14
2016-09-10T23:36:36.539Z,80.14
2016-09-10T23:37:37.240Z,80.71
2016-09-10T23:38:37.898Z,80.62
2016-09-10T23:39:38.534Z,80.23
2016-09-10T23:40:39.229Z,80.52
2016-09-10T23:41:39.864Z,80.52
2016-09-10T23:42:40.493Z,80.52
2016-09-10T23:43:41.128Z,80.71
2016-09-10T23:44:41.820Z,80.04
2016-09-10T23:45:42.755Z,80.14
2016-09-10T23:46:43.440Z,80.71
2016-09-10T23:47:44.096Z,80.71
2016-09-10T23:48:44.730Z,80.52
2016-09-10T23:49:45.388Z,80.71
2016-09-10T23:50:46.145Z,80.43
2016-09-10T23:51:47.070Z,80.43
2016-09-10T23:52:47.798Z,80.81
2016-09-10T23:53:48.437Z,80.62
2016-09-10T23:54:49.094Z,80.81
2016-09-10T23:55:49.733Z,81.01
2016-09-10T23:56:50.454Z,80.81
2016-09-10T23:57:51.229Z,81.01
2016-09-10T23:58:51.863Z,81.01
2016-09-10T23:59:52.586Z,80.91
